Time;durP1;ratioP1;P1;durP2;ratioP2;P2;SDS_P1;SDS_P2;PMS_P1;PMS_P2;Temp;Humidity;BMP_temperature;BMP_pressure;BME280_temperature;BME280_humidity;BME280_pressure;Samples;Min_cycle;Max_cycle;Signal;HPM_P1;HPM_P2
2023/11/19 00:00:19;;;;;;;32.25;4.97;;;;;;;12.03;100.00;100759.34;5015103;28;20418;-89
2023/11/19 00:02:44;;;;;;;39.30;5.95;;;;;;;12.00;100.00;100764.72;5013042;28;20029;-89
2023/11/19 00:05:13;;;;;;;40.92;4.45;;;;;;;12.00;100.00;100767.34;5013476;28;20017;-89
2023/11/19 00:07:42;;;;;;;37.17;4.65;;;;;;;12.02;100.00;100768.97;5014496;28;20453;-89
2023/11/19 00:10:21;;;;;;;42.03;6.50;;;;;;;12.02;100.00;100784.72;5015400;28;20284;-89
2023/11/19 00:12:47;;;;;;;;;;;;;;;12.01;100.00;100787.44;5014672;28;20060;-89
2023/11/19 00:15:18;;;;;;;56.50;6.88;;;;;;;11.98;100.00;100780.53;5013502;28;20128;-89
2023/11/19 00:17:46;;;;;;;44.05;5.35;;;;;;;11.99;100.00;100786.63;5014037;28;20093;-89
2023/11/19 00:20:14;;;;;;;35.63;4.80;;;;;;;11.99;100.00;100794.50;5014864;28;20241;-89
2023/11/19 00:22:40;;;;;;;38.40;5.25;;;;;;;11.99;100.00;100792.75;5011213;28;20341;-89
2023/11/19 00:25:06;;;;;;;45.35;5.53;;;;;;;12.00;100.00;100783.09;5014439;28;20032;-89
2023/11/19 00:27:31;;;;;;;34.63;5.55;;;;;;;11.99;100.00;100777.00;5014763;28;20521;-89
2023/11/19 00:29:57;;;;;;;45.05;5.85;;;;;;;11.96;100.00;100774.50;5015487;28;20048;-89
2023/11/19 00:32:23;;;;;;;37.10;5.72;;;;;;;11.98;100.00;100779.69;5016582;28;20064;-89
2023/11/19 00:34:48;;;;;;;52.05;6.80;;;;;;;11.96;100.00;100786.78;5014505;28;20210;-89
2023/11/19 00:37:16;;;;;;;37.25;5.38;;;;;;;11.95;100.00;100782.47;5015683;28;20380;-89
2023/11/19 00:39:42;;;;;;;53.22;7.15;;;;;;;11.95;100.00;100780.69;5014651;28;20057;-89
2023/11/19 00:42:07;;;;;;;47.75;6.20;;;;;;;11.97;100.00;100793.72;5015420;28;20297;-89
2023/11/19 00:44:33;;;;;;;45.63;5.70;;;;;;;11.94;100.00;100781.63;5014552;28;20037;-89
2023/11/19 00:46:59;;;;;;;39.33;5.47;;;;;;;11.95;100.00;100766.72;5002735;28;20235;-89
2023/11/19 00:49:25;;;;;;;35.85;5.45;;;;;;;11.95;100.00;100761.47;4995553;28;20556;-88
2023/11/19 00:51:50;;;;;;;41.65;5.57;;;;;;;11.94;100.00;100759.78;4994888;28;20061;-88
2023/11/19 00:54:15;;;;;;;56.88;6.18;;;;;;;11.92;100.00;100751.97;4995481;28;20379;-89
2023/11/19 00:56:41;;;;;;;41.70;5.50;;;;;;;11.92;100.00;100749.34;4994660;28;20065;-89
2023/11/19 00:59:06;;;;;;;39.13;5.22;;;;;;;11.90;100.00;100754.66;4997001;28;20065;-89
2023/11/19 01:01:32;;;;;;;46.13;5.75;;;;;;;11.88;100.00;100760.88;4994578;28;20042;-89
2023/11/19 01:03:59;;;;;;;50.45;5.78;;;;;;;11.88;100.00;100753.03;4995367;28;20036;-89
2023/11/19 01:06:28;;;;;;;46.70;6.07;;;;;;;11.86;100.00;100739.97;4995316;28;20577;-89
2023/11/19 01:08:54;;;;;;;36.83;6.50;;;;;;;11.86;100.00;100732.09;4996182;28;20054;-89
2023/11/19 01:11:21;;;;;;;40.50;5.32;;;;;;;11.83;100.00;100737.47;4994849;28;20030;-89
2023/11/19 01:13:47;;;;;;;39.90;5.70;;;;;;;11.83;100.00;100734.00;4994357;28;20042;-89
2023/11/19 01:16:13;;;;;;;47.35;6.10;;;;;;;11.80;100.00;100739.41;4996229;28;20046;-88
2023/11/19 01:18:38;;;;;;;50.35;6.18;;;;;;;11.81;100.00;100747.19;4994458;28;20028;-89
2023/11/19 01:21:04;;;;;;;42.75;6.55;;;;;;;11.78;100.00;100736.84;5011182;28;20080;-89
2023/11/19 01:23:30;;;;;;;47.03;6.82;;;;;;;11.75;100.00;100742.25;4995861;28;20072;-89
2023/11/19 01:25:55;;;;;;;48.75;6.03;;;;;;;11.73;100.00;100736.19;4994829;28;20412;-89
2023/11/19 01:28:20;;;;;;;61.20;6.82;;;;;;;11.70;100.00;100739.84;4994654;28;20330;-89
2023/11/19 01:30:46;;;;;;;56.53;7.72;;;;;;;11.69;100.00;100746.00;4995468;28;20105;-89
2023/11/19 01:33:11;;;;;;;48.92;8.43;;;;;;;11.70;100.00;100744.25;4994641;28;20370;-89
2023/11/19 01:35:36;;;;;;;51.45;5.97;;;;;;;11.67;100.00;100739.97;4995448;28;20053;-89
2023/11/19 01:38:02;;;;;;;46.78;6.75;;;;;;;11.66;100.00;100738.28;4994651;28;20030;-89
2023/11/19 01:40:27;;;;;;;53.30;6.70;;;;;;;11.61;100.00;100735.03;4994184;28;20031;-89
2023/11/19 01:42:52;;;;;;;47.00;5.80;;;;;;;11.60;100.00;100745.56;4995821;28;20314;-89
2023/11/19 01:45:28;;;;;;;37.33;6.55;;;;;;;11.62;100.00;100741.09;4994852;28;20089;-89
2023/11/19 01:47:55;;;;;;;46.72;6.45;;;;;;;11.59;100.00;100744.72;4994398;28;20030;-88
2023/11/19 01:50:22;;;;;;;53.97;6.78;;;;;;;11.57;100.00;100748.34;4994824;28;20065;-89
2023/11/19 01:52:48;;;;;;;54.65;6.75;;;;;;;11.55;100.00;100742.31;4993693;28;20022;-89
2023/11/19 01:55:14;;;;;;;39.85;6.40;;;;;;;11.55;100.00;100735.31;4994829;28;20044;-89
2023/11/19 01:57:41;;;;;;;42.90;6.18;;;;;;;11.51;100.00;100731.09;4995629;28;20061;-89
2023/11/19 02:00:11;;;;;;;39.10;5.22;;;;;;;11.51;100.00;100750.34;4994286;28;20412;-89
2023/11/19 02:02:37;;;;;;;51.25;6.88;;;;;;;11.52;100.00;100759.06;4993249;28;20037;-89
2023/11/19 02:05:02;;;;;;;47.97;6.03;;;;;;;11.51;100.00;100765.19;4995730;28;20061;-89
2023/11/19 02:07:29;;;;;;;44.85;6.35;;;;;;;11.49;100.00;100767.88;4995279;28;20046;-89
2023/11/19 02:09:54;;;;;;;43.20;6.40;;;;;;;11.46;100.00;100775.03;4993820;28;20049;-89
2023/11/19 02:12:20;;;;;;;51.42;6.20;;;;;;;11.40;100.00;100755.19;4994187;28;20038;-89
2023/11/19 02:14:46;;;;;;;49.38;8.23;;;;;;;11.38;100.00;100764.06;4994954;28;20035;-89
2023/11/19 02:17:28;;;;;;;44.05;7.43;;;;;;;11.37;100.00;100764.97;4993594;28;20041;-89
2023/11/19 02:19:53;;;;;;;51.25;6.95;;;;;;;11.35;100.00;100751.97;4993602;28;20308;-89
2023/11/19 02:22:19;;;;;;;52.47;6.13;;;;;;;11.35;100.00;100759.81;4995364;28;20065;-89
2023/11/19 02:24:46;;;;;;;54.25;6.88;;;;;;;11.33;100.00;100759.88;4993194;28;20203;-89
2023/11/19 02:27:36;;;;;;;46.22;6.63;;;;;;;11.35;100.00;100762.44;4995479;28;20041;-89
2023/11/19 02:30:06;;;;;;;44.33;5.97;;;;;;;11.34;100.00;100771.22;4987745;28;20046;-89
2023/11/19 02:32:31;;;;;;;52.63;7.28;;;;;;;11.31;100.00;100766.97;4994359;28;20093;-89
2023/11/19 02:34:56;;;;;;;50.63;7.30;;;;;;;11.29;100.00;100760.94;4993561;28;20042;-89
2023/11/19 02:37:22;;;;;;;49.70;6.50;;;;;;;11.27;100.00;100754.91;4995435;28;20089;-89
2023/11/19 02:39:47;;;;;;;56.42;7.85;;;;;;;11.26;100.00;100755.84;4993276;28;20029;-89
2023/11/19 02:42:13;;;;;;;56.45;7.20;;;;;;;11.27;100.00;100752.28;4995497;28;20042;-89
2023/11/19 02:44:39;;;;;;;57.20;6.85;;;;;;;11.24;100.00;100759.44;4995016;28;20034;-89
2023/11/19 02:47:07;;;;;;;52.10;7.55;;;;;;;11.20;100.00;100756.09;4995113;28;20059;-89
2023/11/19 02:49:33;;;;;;;62.50;8.55;;;;;;;11.17;100.00;100745.78;4994581;28;20037;-89
2023/11/19 02:51:59;;;;;;;55.13;6.47;;;;;;;11.14;100.00;100744.13;4993406;28;20384;-89
2023/11/19 02:54:27;;;;;;;63.45;7.22;;;;;;;11.15;100.00;100744.97;4995040;28;20034;-89
2023/11/19 02:56:55;;;;;;;48.17;7.35;;;;;;;11.13;100.00;100759.91;4995155;28;20030;-89
2023/11/19 02:59:27;;;;;;;54.78;7.43;;;;;;;11.09;100.00;100758.34;4993372;28;20081;-88
2023/11/19 03:01:53;;;;;;;46.33;6.55;;;;;;;11.10;100.00;100765.31;4992971;28;20234;-89
2023/11/19 03:04:20;;;;;;;51.30;7.40;;;;;;;11.07;100.00;100754.94;4993434;28;20033;-88
2023/11/19 03:06:45;;;;;;;47.92;7.30;;;;;;;11.07;100.00;100749.72;4993549;28;20098;-89
2023/11/19 03:09:11;;;;;;;49.25;7.15;;;;;;;11.05;100.00;100759.41;4993154;28;20062;-89
2023/11/19 03:11:36;;;;;;;61.13;7.82;;;;;;;11.03;100.00;100753.38;4993004;28;20029;-89
2023/11/19 03:14:03;;;;;;;38.08;5.63;;;;;;;11.04;100.00;100750.72;4993314;28;20053;-89
2023/11/19 03:16:28;;;;;;;42.95;6.03;;;;;;;11.03;100.00;100750.78;4996179;28;20034;-88
2023/11/19 03:18:54;;;;;;;56.65;7.10;;;;;;;11.01;100.00;100735.09;4997075;28;20337;-89
2023/11/19 03:21:31;;;;;;;57.28;7.63;;;;;;;11.01;100.00;100726.41;4997045;28;20072;-89
2023/11/19 03:23:59;;;;;;;50.75;7.28;;;;;;;10.99;100.00;100728.22;4998559;28;20037;-89
2023/11/19 03:26:25;;;;;;;;;;;;;;;10.98;100.00;100723.91;4997866;28;20334;-88
2023/11/19 03:28:50;;;;;;;43.60;5.50;;;;;;;10.98;100.00;100727.38;4996299;28;20249;-89
2023/11/19 03:31:15;;;;;;;48.45;6.85;;;;;;;10.94;100.00;100713.56;4997195;28;20018;-88
2023/11/19 03:33:41;;;;;;;51.10;6.05;;;;;;;10.93;100.00;100727.59;4997686;28;20076;-88
2023/11/19 03:36:07;;;;;;;59.05;7.70;;;;;;;10.92;100.00;100731.13;4998482;28;20331;-88
2023/11/19 03:38:32;;;;;;;45.75;7.10;;;;;;;10.94;100.00;100738.91;4997781;28;20126;-88
2023/11/19 03:40:59;;;;;;;40.67;6.68;;;;;;;10.93;100.00;100735.44;4997297;28;20034;-90
2023/11/19 03:43:24;;;;;;;45.60;6.53;;;;;;;10.90;100.00;100732.13;4996834;28;20239;-91
2023/11/19 03:45:49;;;;;;;49.83;7.78;;;;;;;10.91;100.00;100734.66;4996200;28;20022;-90
2023/11/19 03:48:16;;;;;;;51.95;7.63;;;;;;;10.89;100.00;100733.84;4998073;28;20080;-91
2023/11/19 03:50:41;;;;;;;45.03;6.53;;;;;;;10.91;100.00;100752.13;4997653;28;20034;-91
2023/11/19 03:53:07;;;;;;;56.53;6.38;;;;;;;10.88;100.00;100744.44;4997997;28;20045;-91
2023/11/19 03:55:32;;;;;;;49.35;6.78;;;;;;;10.90;100.00;100734.72;4997281;28;20029;-91
2023/11/19 03:57:58;;;;;;;45.60;6.28;;;;;;;10.87;100.00;100733.09;4997946;28;20451;-90
2023/11/19 04:00:23;;;;;;;54.85;6.78;;;;;;;10.86;100.00;100735.75;4997961;28;20088;-88
2023/11/19 04:02:49;;;;;;;54.08;8.23;;;;;;;10.86;100.00;100747.13;4995686;28;20515;-88
2023/11/19 04:05:14;;;;;;;48.85;6.85;;;;;;;10.86;100.00;100739.25;4996808;28;20030;-88
2023/11/19 04:07:40;;;;;;;55.88;8.38;;;;;;;10.82;100.00;100760.41;4997374;28;20261;-88
2023/11/19 04:10:05;;;;;;;48.47;6.55;;;;;;;10.83;100.00;100752.47;4986198;28;20098;-88
2023/11/19 04:12:31;;;;;;;49.38;7.30;;;;;;;10.85;100.00;100753.25;4960237;28;20034;-88
2023/11/19 04:14:56;;;;;;;48.75;6.00;;;;;;;10.86;100.00;100761.97;4960589;28;20038;-88
2023/11/19 04:17:22;;;;;;;46.80;6.07;;;;;;;10.83;100.00;100755.09;4960286;28;20088;-88
2023/11/19 04:19:48;;;;;;;58.75;7.13;;;;;;;10.80;100.00;100749.97;4977459;28;20517;-88
2023/11/19 04:22:14;;;;;;;47.90;5.63;;;;;;;10.78;100.00;100753.59;4977990;28;20058;-88
2023/11/19 04:24:40;;;;;;;50.90;7.18;;;;;;;10.75;100.00;100757.19;4977449;28;20350;-88
2023/11/19 04:27:06;;;;;;;40.15;6.78;;;;;;;10.77;100.00;100747.50;4978016;28;20101;-88
2023/11/19 04:29:32;;;;;;;47.00;6.20;;;;;;;10.79;100.00;100758.78;4977554;28;20062;-88
2023/11/19 04:31:57;;;;;;;53.15;6.57;;;;;;;10.82;100.00;100770.88;4977773;28;20286;-88
2023/11/19 04:34:23;;;;;;;48.47;5.88;;;;;;;10.83;100.00;100773.44;4977869;28;20049;-88
2023/11/19 04:36:49;;;;;;;47.63;8.07;;;;;;;10.80;100.00;100763.06;4977307;28;20038;-88
2023/11/19 04:39:15;;;;;;;43.83;6.32;;;;;;;10.80;100.00;100757.00;4977635;28;20334;-88
2023/11/19 04:41:53;;;;;;;55.67;7.13;;;;;;;10.78;100.00;100766.69;4959693;28;20285;-88
2023/11/19 04:44:18;;;;;;;40.42;5.55;;;;;;;10.77;100.00;100758.00;4960226;28;20300;-88
2023/11/19 04:46:44;;;;;;;46.83;6.25;;;;;;;10.76;100.00;100764.13;4976898;28;20041;-88
2023/11/19 04:49:18;;;;;;;45.42;6.03;;;;;;;10.73;100.00;100762.50;4977502;28;20046;-88
2023/11/19 04:51:46;;;;;;;52.03;6.32;;;;;;;10.75;100.00;100762.41;4976891;28;20026;-89
2023/11/19 04:54:12;;;;;;;;;;;;;;;10.74;100.00;100761.56;4960510;28;20031;-89
2023/11/19 04:56:37;;;;;;;45.60;6.10;;;;;;;10.78;100.00;100753.59;4959555;28;19920;-91
2023/11/19 04:59:05;;;;;;;48.00;6.55;;;;;;;10.81;100.00;100756.94;4977633;28;20106;-91
2023/11/19 05:01:31;;;;;;;53.67;6.15;;;;;;;10.79;100.00;100756.16;4958945;28;20038;-91
2023/11/19 05:03:59;;;;;;;47.42;7.15;;;;;;;10.80;100.00;100755.22;4977997;28;20158;-91
2023/11/19 05:06:29;;;;;;;56.60;7.00;;;;;;;10.84;100.00;100764.69;4990145;28;20348;-91
2023/11/19 05:08:55;;;;;;;42.25;5.95;;;;;;;10.82;100.00;100756.00;5018233;28;20033;-91
2023/11/19 05:11:21;;;;;;;57.30;7.32;;;;;;;10.80;100.00;100768.31;5034684;28;20325;-90
2023/11/19 05:13:46;;;;;;;45.60;6.53;;;;;;;10.82;100.00;100763.84;5035308;28;20091;-91
2023/11/19 05:16:15;;;;;;;56.45;7.47;;;;;;;10.80;100.00;100762.25;5034454;28;20029;-91
2023/11/19 05:18:40;;;;;;;46.90;6.97;;;;;;;10.81;100.00;100771.81;5033746;28;20021;-91
2023/11/19 05:21:09;;;;;;;53.60;6.97;;;;;;;10.80;100.00;100784.03;5034408;28;20056;-91
2023/11/19 05:23:34;;;;;;;42.75;6.72;;;;;;;10.83;100.00;100783.91;5035249;28;20069;-91
2023/11/19 05:26:03;;;;;;;45.42;7.25;;;;;;;10.81;100.00;100777.06;5035653;28;20028;-91
2023/11/19 05:28:28;;;;;;;40.10;5.63;;;;;;;10.74;100.00;100764.19;5035334;28;20044;-91
2023/11/19 05:30:55;;;;;;;56.13;7.45;;;;;;;10.74;100.00;100779.91;5035425;28;20232;-90
2023/11/19 05:33:20;;;;;;;48.35;6.40;;;;;;;10.72;100.00;100768.66;5035425;28;20060;-91
2023/11/19 05:35:46;;;;;;;47.67;8.48;;;;;;;10.71;100.00;100782.69;5034975;28;20616;-90
2023/11/19 05:38:11;;;;;;;54.83;6.55;;;;;;;10.70;100.00;100765.25;5035030;28;20037;-91
2023/11/19 05:40:38;;;;;;;55.97;8.10;;;;;;;10.68;100.00;100771.47;5034850;28;20041;-91
2023/11/19 05:43:04;;;;;;;51.75;7.28;;;;;;;10.68;100.00;100766.25;5035125;28;20052;-91
2023/11/19 05:45:29;;;;;;;48.22;6.28;;;;;;;10.67;100.00;100775.84;5033647;28;20209;-90
2023/11/19 05:47:54;;;;;;;41.13;5.75;;;;;;;10.67;100.00;100775.84;5033238;28;20039;-91
2023/11/19 05:50:20;;;;;;;43.60;6.63;;;;;;;10.65;100.00;100766.38;5035312;28;20403;-91
2023/11/19 05:52:46;;;;;;;51.63;6.57;;;;;;;10.64;100.00;100768.13;5034600;28;20336;-91
2023/11/19 05:55:12;;;;;;;55.47;6.28;;;;;;;10.62;100.00;100769.94;5035190;28;20040;-91
2023/11/19 05:57:38;;;;;;;49.55;6.07;;;;;;;10.60;100.00;100774.41;5034915;28;20056;-91
2023/11/19 06:00:08;;;;;;;46.22;5.47;;;;;;;10.59;100.00;100770.09;5035071;28;20340;-91
2023/11/19 06:02:34;;;;;;;45.10;6.82;;;;;;;10.59;100.00;100774.47;5034312;28;20040;-90
2023/11/19 06:05:00;;;;;;;42.63;6.55;;;;;;;10.54;100.00;100772.88;5035020;28;20036;-91
2023/11/19 06:07:25;;;;;;;35.80;5.78;;;;;;;10.54;100.00;100764.19;5035495;28;20049;-91
2023/11/19 06:09:51;;;;;;;46.38;5.80;;;;;;;10.52;100.00;100766.03;5034115;28;20273;-91
2023/11/19 06:12:16;;;;;;;43.88;6.80;;;;;;;10.52;100.00;100774.72;5035192;28;20232;-90
2023/11/19 06:14:41;;;;;;;51.28;6.43;;;;;;;10.52;100.00;100766.88;5034585;28;20036;-90
2023/11/19 06:17:08;;;;;;;47.20;7.28;;;;;;;10.52;100.00;100752.94;5034673;28;20284;-90
2023/11/19 06:19:34;;;;;;;44.55;5.28;;;;;;;10.52;100.00;100760.78;5034023;28;20044;-90
2023/11/19 06:21:59;;;;;;;42.20;5.85;;;;;;;10.52;100.00;100764.25;5033202;28;20025;-90
2023/11/19 06:24:24;;;;;;;48.45;6.53;;;;;;;10.51;100.00;100767.81;5035281;28;20095;-90
2023/11/19 06:26:50;;;;;;;42.38;6.43;;;;;;;10.49;100.00;100768.75;5032651;28;20026;-90
2023/11/19 06:29:18;;;;;;;44.42;5.60;;;;;;;10.50;100.00;100776.56;5033328;28;20224;-90
2023/11/19 06:31:43;;;;;;;41.97;6.70;;;;;;;10.48;100.00;100773.16;5033660;28;20052;-90
2023/11/19 06:34:09;;;;;;;43.50;6.65;;;;;;;10.47;100.00;100770.59;5034652;28;20353;-90
2023/11/19 06:36:35;;;;;;;44.97;6.20;;;;;;;10.46;100.00;100768.88;5032430;28;20033;-90
2023/11/19 06:39:00;;;;;;;49.38;5.55;;;;;;;10.48;100.00;100786.25;5033088;28;20021;-90
2023/11/19 06:41:28;;;;;;;50.95;6.78;;;;;;;10.48;100.00;100786.25;5034663;28;20359;-90
2023/11/19 06:43:54;;;;;;;47.08;6.15;;;;;;;10.48;100.00;100781.00;5034180;28;20368;-90
2023/11/19 06:46:20;;;;;;;39.50;7.05;;;;;;;10.50;100.00;100787.03;5034355;28;20045;-91
2023/11/19 06:48:46;;;;;;;47.22;6.95;;;;;;;10.49;100.00;100785.31;5033569;28;20037;-88
2023/11/19 06:51:12;;;;;;;55.20;6.38;;;;;;;10.50;100.00;100794.88;5032779;28;20360;-88
2023/11/19 06:53:37;;;;;;;44.70;6.40;;;;;;;10.53;100.00;100801.75;5033650;28;20101;-88
2023/11/19 06:56:06;;;;;;;42.72;5.38;;;;;;;10.53;100.00;100807.00;5032901;28;20033;-88
2023/11/19 06:58:36;;;;;;;45.33;6.97;;;;;;;10.55;100.00;100805.16;5033663;28;20037;-88
2023/11/19 07:01:01;;;;;;;36.97;6.55;;;;;;;10.57;100.00;100800.72;5032740;28;20240;-88
2023/11/19 07:03:26;;;;;;;43.72;6.07;;;;;;;10.55;100.00;100808.66;5033848;28;20029;-88
2023/11/19 07:05:52;;;;;;;50.45;6.78;;;;;;;10.57;100.00;100798.13;5034357;28;20120;-88
2023/11/19 07:08:17;;;;;;;53.42;7.47;;;;;;;10.60;100.00;100802.38;5034166;28;20033;-88
2023/11/19 07:10:43;;;;;;;52.78;5.78;;;;;;;10.61;100.00;100811.94;5033320;28;20065;-88
2023/11/19 07:13:08;;;;;;;58.67;7.68;;;;;;;10.63;100.00;100815.34;5032883;28;20040;-88
2023/11/19 07:15:33;;;;;;;53.88;7.45;;;;;;;10.66;100.00;100802.09;5033465;28;20041;-88
2023/11/19 07:18:02;;;;;;;50.67;6.63;;;;;;;10.68;100.00;100795.06;5033813;28;20044;-88
2023/11/19 07:20:27;;;;;;;42.08;5.85;;;;;;;10.68;100.00;100797.69;5034270;28;20490;-88
2023/11/19 07:22:54;;;;;;;43.55;6.63;;;;;;;10.65;100.00;100793.41;5034084;28;20033;-88
2023/11/19 07:25:20;;;;;;;47.13;6.60;;;;;;;10.64;100.00;100777.75;5032582;28;20030;-88
2023/11/19 07:27:47;;;;;;;47.13;6.93;;;;;;;10.65;100.00;100777.69;5033569;28;20347;-88
2023/11/19 07:30:12;;;;;;;41.25;5.35;;;;;;;10.66;100.00;100794.25;5023229;28;20056;-88
2023/11/19 07:32:38;;;;;;;38.45;5.47;;;;;;;10.66;100.00;100792.50;5013733;28;20034;-88
2023/11/19 07:35:05;;;;;;;46.10;6.53;;;;;;;10.66;100.00;100802.09;5014452;28;20337;-88
2023/11/19 07:37:31;;;;;;;50.05;6.88;;;;;;;10.72;100.00;100801.84;5013824;28;20037;-88
2023/11/19 07:39:56;;;;;;;68.40;7.95;;;;;;;10.67;100.00;100799.41;5011128;28;20362;-88
2023/11/19 07:42:22;;;;;;;55.28;6.72;;;;;;;10.68;100.00;100805.53;5010260;28;20057;-88
2023/11/19 07:44:48;;;;;;;48.08;6.15;;;;;;;10.69;100.00;100796.75;5008211;28;20638;-88
2023/11/19 07:47:13;;;;;;;54.78;9.55;;;;;;;10.69;100.00;100779.25;5011517;28;20034;-88
2023/11/19 07:49:39;;;;;;;48.70;6.40;;;;;;;10.71;100.00;100784.44;5013454;28;20021;-88
2023/11/19 07:52:04;;;;;;;51.47;6.97;;;;;;;10.71;100.00;100794.91;5013981;28;20128;-88
2023/11/19 07:54:30;;;;;;;43.50;6.00;;;;;;;10.71;100.00;100801.03;5011714;28;20025;-88
2023/11/19 07:56:55;;;;;;;57.90;7.07;;;;;;;10.72;100.00;100794.00;5013927;28;20047;-88
2023/11/19 07:59:21;;;;;;;39.38;6.53;;;;;;;10.72;100.00;100794.00;5012301;28;20040;-88
2023/11/19 08:01:47;;;;;;;42.03;7.10;;;;;;;10.71;100.00;100787.03;5011835;28;20065;-88
2023/11/19 08:04:13;;;;;;;53.63;6.97;;;;;;;10.71;100.00;100797.53;5017131;28;20161;-88
2023/11/19 08:06:38;;;;;;;66.22;7.50;;;;;;;10.71;100.00;100798.41;5015359;28;20357;-88
2023/11/19 08:09:04;;;;;;;44.92;5.50;;;;;;;10.73;100.00;100795.69;5016999;28;20305;-90
2023/11/19 08:11:29;;;;;;;59.92;7.75;;;;;;;10.71;100.00;100814.13;5016741;28;20030;-90
2023/11/19 08:13:54;;;;;;;42.30;5.72;;;;;;;10.73;100.00;100806.16;5015523;28;20052;-90
2023/11/19 08:16:20;;;;;;;48.28;5.88;;;;;;;10.75;100.00;100809.56;5011955;28;20100;-90
2023/11/19 08:18:45;;;;;;;38.63;5.75;;;;;;;10.76;100.00;100800.81;5016268;28;20694;-90
2023/11/19 08:21:13;;;;;;;41.63;6.30;;;;;;;10.79;100.00;100798.06;5016852;28;20049;-90
2023/11/19 08:23:38;;;;;;;40.67;6.47;;;;;;;10.80;100.00;100801.53;5015062;28;20033;-90
2023/11/19 08:26:05;;;;;;;53.72;7.15;;;;;;;10.82;100.00;100807.56;5016349;28;20022;-90
2023/11/19 08:28:31;;;;;;;58.80;6.78;;;;;;;10.84;100.00;100826.69;5014623;28;20057;-90
2023/11/19 08:30:56;;;;;;;49.03;7.25;;;;;;;10.88;100.00;100812.56;5015730;28;20038;-90
2023/11/19 08:33:22;;;;;;;50.50;7.25;;;;;;;10.90;100.00;100816.78;5016028;28;20046;-90
2023/11/19 08:35:48;;;;;;;50.75;6.63;;;;;;;10.93;100.00;100815.81;5014567;28;20042;-90
2023/11/19 08:38:13;;;;;;;47.53;6.00;;;;;;;10.95;100.00;100801.75;5016564;28;20030;-90
2023/11/19 08:40:39;;;;;;;35.15;5.82;;;;;;;10.97;100.00;100801.69;5016228;28;20225;-90
2023/11/19 08:43:04;;;;;;;52.67;6.35;;;;;;;10.99;100.00;100809.44;5031457;28;20030;-90
2023/11/19 08:45:30;;;;;;;48.97;6.10;;;;;;;11.00;100.00;100808.53;5015408;28;20033;-90
2023/11/19 08:47:56;;;;;;;49.63;7.05;;;;;;;11.03;100.00;100816.28;5010281;28;20229;-90
2023/11/19 08:50:22;;;;;;;54.08;6.75;;;;;;;11.08;100.00;100806.47;5014031;28;20030;-90
2023/11/19 08:52:47;;;;;;;46.33;6.30;;;;;;;11.08;100.00;100807.31;5013674;28;20045;-90
2023/11/19 08:55:13;;;;;;;48.13;6.20;;;;;;;11.11;100.00;100808.94;5012722;28;20104;-90
2023/11/19 08:57:39;;;;;;;45.30;5.53;;;;;;;11.13;100.00;100794.84;5012721;28;20037;-90
2023/11/19 09:00:07;;;;;;;38.92;6.30;;;;;;;11.15;100.00;100805.25;5012926;28;20072;-90
2023/11/19 09:02:34;;;;;;;47.58;6.00;;;;;;;11.15;100.00;100805.25;5012295;28;20049;-90
2023/11/19 09:04:59;;;;;;;43.47;6.75;;;;;;;11.16;100.00;100808.75;5012691;28;20236;-90
2023/11/19 09:07:25;;;;;;;45.60;8.07;;;;;;;11.17;100.00;100811.31;5013071;28;20112;-87
2023/11/19 09:09:50;;;;;;;41.70;6.20;;;;;;;11.20;100.00;100815.53;5010882;28;20104;-88
2023/11/19 09:12:15;;;;;;;51.17;5.57;;;;;;;11.21;100.00;100812.03;5011223;28;20022;-88
2023/11/19 09:14:41;;;;;;;52.00;6.35;;;;;;;11.20;100.00;100807.69;5013477;28;20091;-88
2023/11/19 09:17:07;;;;;;;43.75;5.65;;;;;;;11.20;100.00;100813.75;5014211;28;20391;-87
2023/11/19 09:19:33;;;;;;;45.15;7.35;;;;;;;11.19;100.00;100798.09;5012708;28;20367;-88
2023/11/19 09:21:58;;;;;;;54.50;5.97;;;;;;;11.20;100.00;100819.00;5014016;28;20034;-88
2023/11/19 09:24:23;;;;;;;31.75;4.63;;;;;;;11.23;100.00;100823.28;5014158;28;20034;-88
2023/11/19 09:26:49;;;;;;;47.65;6.10;;;;;;;11.23;100.00;100805.78;5013400;28;20063;-88
2023/11/19 09:29:14;;;;;;;40.80;5.30;;;;;;;11.23;100.00;100813.63;5013826;28;20045;-90
2023/11/19 09:31:40;;;;;;;41.13;6.22;;;;;;;11.26;100.00;100810.03;5013833;28;20133;-90
2023/11/19 09:34:05;;;;;;;44.10;6.10;;;;;;;11.26;100.00;100812.63;5013423;28;20038;-90
2023/11/19 09:36:31;;;;;;;54.45;7.07;;;;;;;11.28;100.00;100801.19;5013609;28;20219;-90
2023/11/19 09:38:56;;;;;;;40.30;5.43;;;;;;;11.30;100.00;100814.22;5013919;28;20076;-90
2023/11/19 09:41:23;;;;;;;37.00;5.50;;;;;;;11.33;100.00;100806.22;5014333;28;20038;-90
2023/11/19 09:43:49;;;;;;;32.63;5.45;;;;;;;11.36;100.00;100802.63;5013422;28;20033;-90
2023/11/19 09:46:16;;;;;;;41.42;5.93;;;;;;;11.39;100.00;100805.97;5011957;28;20169;-90
2023/11/19 09:48:42;;;;;;;36.97;6.25;;;;;;;11.43;100.00;100814.53;5013125;28;20057;-90
2023/11/19 09:51:11;;;;;;;31.83;5.18;;;;;;;11.45;100.00;100805.66;5013636;28;20061;-90
2023/11/19 09:53:37;;;;;;;34.05;5.07;;;;;;;11.46;100.00;100806.50;5012965;28;20168;-90
2023/11/19 09:56:04;;;;;;;32.67;4.25;;;;;;;11.50;100.00;100815.97;5013636;28;20083;-90
2023/11/19 09:58:33;;;;;;;43.70;5.72;;;;;;;11.51;100.00;100810.66;5011293;28;20029;-90
2023/11/19 10:01:00;;;;;;;39.55;6.63;;;;;;;11.52;100.00;100814.97;5028550;28;20329;-90
2023/11/19 10:03:27;;;;;;;42.35;5.65;;;;;;;11.54;100.00;100817.53;5013239;28;20351;-90
2023/11/19 10:05:55;;;;;;;23.90;4.60;;;;;;;11.54;100.00;100817.53;5013209;28;20022;-90
2023/11/19 10:08:20;;;;;;;35.05;6.28;;;;;;;11.52;100.00;100814.13;5013339;28;20029;-90
2023/11/19 10:10:47;;;;;;;41.85;6.20;;;;;;;11.48;100.00;100821.28;5028819;28;20089;-90
2023/11/19 10:13:14;;;;;;;29.75;4.57;;;;;;;11.46;100.00;100810.00;5033280;28;20041;-90
2023/11/19 10:15:40;;;;;;;31.10;5.30;;;;;;;11.48;100.00;100812.56;5032379;28;20141;-90
2023/11/19 10:18:05;;;;;;;49.75;5.45;;;;;;;11.50;100.00;100810.72;5033037;28;20040;-90
2023/11/19 10:20:40;;;;;;;34.88;6.07;;;;;;;11.52;100.00;100801.00;5014433;28;20052;-90
2023/11/19 10:23:05;;;;;;;32.40;4.80;;;;;;;11.53;100.00;100815.81;5032523;28;20284;-90
2023/11/19 10:25:33;;;;;;;39.53;6.10;;;;;;;11.55;100.00;100808.75;5031848;28;20018;-90
2023/11/19 10:28:00;;;;;;;29.83;4.75;;;;;;;11.58;100.00;100797.25;5014985;28;20029;-90
2023/11/19 10:30:30;;;;;;;36.13;5.22;;;;;;;11.59;100.00;100794.56;5014955;28;20071;-90
2023/11/19 10:33:07;;;;;;;43.55;6.07;;;;;;;11.63;100.00;100797.91;5014686;28;20033;-90
2023/11/19 10:35:36;;;;;;;48.80;5.85;;;;;;;11.65;100.00;100796.91;5031772;28;20037;-90
2023/11/19 10:38:22;;;;;;;30.45;3.90;;;;;;;11.67;100.00;100805.53;5032605;28;20463;-90
2023/11/19 10:40:47;;;;;;;36.33;5.13;;;;;;;11.70;100.00;100808.03;5013693;28;20112;-90
2023/11/19 10:43:12;;;;;;;34.28;5.18;;;;;;;11.68;100.00;100795.94;5032487;28;20037;-90
2023/11/19 10:45:38;;;;;;;36.45;4.55;;;;;;;11.67;100.00;100805.53;5013803;28;20037;-90
2023/11/19 10:48:08;;;;;;;36.85;4.80;;;;;;;11.68;100.00;100796.78;5031105;28;20140;-90
2023/11/19 10:50:34;;;;;;;38.20;4.60;;;;;;;11.65;100.00;100793.44;5030978;28;20033;-90
2023/11/19 10:53:00;;;;;;;29.90;5.32;;;;;;;11.64;100.00;100796.97;5032128;28;20037;-90
2023/11/19 10:55:30;;;;;;;45.58;6.03;;;;;;;11.64;100.00;100799.59;5032197;28;20043;-90
2023/11/19 10:58:03;;;;;;;48.80;7.38;;;;;;;11.64;100.00;100800.47;5014082;28;20037;-90
2023/11/19 11:00:44;;;;;;;47.40;6.28;;;;;;;11.66;100.00;100796.00;5013206;28;20036;-90
2023/11/19 11:03:22;;;;;;;45.45;6.80;;;;;;;11.73;100.00;100807.03;5032030;28;20041;-90
2023/11/19 11:05:49;;;;;;;50.83;6.05;;;;;;;11.79;100.00;100805.91;5031904;28;20044;-90